sensor_id;sensor_type;location;lat;lon;timestamp;temperature;humidity
46932;DHT22;32670;51.464;11.964;2023-07-13T00:00:23;26.90;42.50
46932;DHT22;32670;51.464;11.964;2023-07-13T00:02:49;27.00;42.70
46932;DHT22;32670;51.464;11.964;2023-07-13T00:05:14;26.90;42.80
46932;DHT22;32670;51.464;11.964;2023-07-13T00:07:40;26.90;43.20
46932;DHT22;32670;51.464;11.964;2023-07-13T00:10:06;26.90;43.30
46932;DHT22;32670;51.464;11.964;2023-07-13T00:12:34;26.90;43.20
46932;DHT22;32670;51.464;11.964;2023-07-13T00:15:05;26.90;43.30
46932;DHT22;32670;51.464;11.964;2023-07-13T00:17:30;26.90;43.20
46932;DHT22;32670;51.464;11.964;2023-07-13T00:19:56;26.90;43.20
46932;DHT22;32670;51.464;11.964;2023-07-13T00:22:23;26.90;43.10
46932;DHT22;32670;51.464;11.964;2023-07-13T00:24:51;26.90;43.00
46932;DHT22;32670;51.464;11.964;2023-07-13T00:27:17;26.90;42.90
46932;DHT22;32670;51.464;11.964;2023-07-13T00:29:43;26.90;43.00
46932;DHT22;32670;51.464;11.964;2023-07-13T00:32:08;26.90;42.70
46932;DHT22;32670;51.464;11.964;2023-07-13T00:34:35;26.90;43.20
46932;DHT22;32670;51.464;11.964;2023-07-13T00:37:00;26.90;42.50
46932;DHT22;32670;51.464;11.964;2023-07-13T00:39:27;26.90;42.40
46932;DHT22;32670;51.464;11.964;2023-07-13T00:41:53;26.80;42.30
46932;DHT22;32670;51.464;11.964;2023-07-13T00:44:19;26.80;42.30
46932;DHT22;32670;51.464;11.964;2023-07-13T00:46:46;26.80;42.30
46932;DHT22;32670;51.464;11.964;2023-07-13T00:49:16;26.80;42.30
46932;DHT22;32670;51.464;11.964;2023-07-13T00:52:27;26.80;42.40
46932;DHT22;32670;51.464;11.964;2023-07-13T00:54:45;26.80;42.50
46932;DHT22;32670;51.464;11.964;2023-07-13T00:57:19;26.80;42.40
46932;DHT22;32670;51.464;11.964;2023-07-13T00:59:50;26.80;42.40
46932;DHT22;32670;51.464;11.964;2023-07-13T01:02:17;26.70;42.50
46932;DHT22;32670;51.464;11.964;2023-07-13T01:04:43;26.80;42.60
46932;DHT22;32670;51.464;11.964;2023-07-13T01:07:10;26.70;42.50
46932;DHT22;32670;51.464;11.964;2023-07-13T01:09:36;26.80;42.60
46932;DHT22;32670;51.464;11.964;2023-07-13T01:12:02;26.70;42.50
46932;DHT22;32670;51.464;11.964;2023-07-13T01:14:28;26.70;42.60
46932;DHT22;32670;51.464;11.964;2023-07-13T01:16:54;26.70;42.40
46932;DHT22;32670;51.464;11.964;2023-07-13T01:19:32;26.70;42.70
46932;DHT22;32670;51.464;11.964;2023-07-13T01:22:02;26.70;42.70
46932;DHT22;32670;51.464;11.964;2023-07-13T01:24:28;26.70;42.80
46932;DHT22;32670;51.464;11.964;2023-07-13T01:26:54;26.70;42.80
46932;DHT22;32670;51.464;11.964;2023-07-13T01:29:21;26.70;42.80
46932;DHT22;32670;51.464;11.964;2023-07-13T01:31:46;26.60;42.80
46932;DHT22;32670;51.464;11.964;2023-07-13T01:34:12;26.60;42.90
46932;DHT22;32670;51.464;11.964;2023-07-13T01:36:37;26.60;42.90
46932;DHT22;32670;51.464;11.964;2023-07-13T01:39:03;26.60;42.90
46932;DHT22;32670;51.464;11.964;2023-07-13T01:41:29;26.60;43.00
46932;DHT22;32670;51.464;11.964;2023-07-13T01:43:54;26.60;42.90
46932;DHT22;32670;51.464;11.964;2023-07-13T01:46:19;26.60;43.00
46932;DHT22;32670;51.464;11.964;2023-07-13T01:48:45;26.60;43.00
46932;DHT22;32670;51.464;11.964;2023-07-13T01:51:10;26.60;43.10
46932;DHT22;32670;51.464;11.964;2023-07-13T01:53:36;26.60;43.20
46932;DHT22;32670;51.464;11.964;2023-07-13T01:56:02;26.60;43.10
46932;DHT22;32670;51.464;11.964;2023-07-13T01:58:27;26.60;43.80
46932;DHT22;32670;51.464;11.964;2023-07-13T02:00:53;26.50;43.10
46932;DHT22;32670;51.464;11.964;2023-07-13T02:03:18;26.50;43.20
46932;DHT22;32670;51.464;11.964;2023-07-13T02:05:45;26.50;43.20
46932;DHT22;32670;51.464;11.964;2023-07-13T02:08:10;26.50;43.30
46932;DHT22;32670;51.464;11.964;2023-07-13T02:10:37;26.50;43.40
46932;DHT22;32670;51.464;11.964;2023-07-13T02:13:05;26.50;43.20
46932;DHT22;32670;51.464;11.964;2023-07-13T02:15:31;26.50;43.40
46932;DHT22;32670;51.464;11.964;2023-07-13T02:17:56;26.50;43.40
46932;DHT22;32670;51.464;11.964;2023-07-13T02:20:24;26.50;43.30
46932;DHT22;32670;51.464;11.964;2023-07-13T02:22:49;26.50;43.40
46932;DHT22;32670;51.464;11.964;2023-07-13T02:25:15;26.50;43.50
46932;DHT22;32670;51.464;11.964;2023-07-13T02:27:40;26.40;43.50
46932;DHT22;32670;51.464;11.964;2023-07-13T02:30:06;26.40;43.50
46932;DHT22;32670;51.464;11.964;2023-07-13T02:32:32;26.40;43.50
46932;DHT22;32670;51.464;11.964;2023-07-13T02:34:59;26.40;43.60
46932;DHT22;32670;51.464;11.964;2023-07-13T02:37:24;26.40;43.70
46932;DHT22;32670;51.464;11.964;2023-07-13T02:39:50;26.40;43.60
46932;DHT22;32670;51.464;11.964;2023-07-13T02:42:15;26.40;43.70
46932;DHT22;32670;51.464;11.964;2023-07-13T02:44:40;26.40;43.80
46932;DHT22;32670;51.464;11.964;2023-07-13T02:47:06;26.40;43.80
46932;DHT22;32670;51.464;11.964;2023-07-13T02:49:32;26.30;43.70
46932;DHT22;32670;51.464;11.964;2023-07-13T02:51:57;26.30;43.80
46932;DHT22;32670;51.464;11.964;2023-07-13T02:54:23;26.30;43.80
46932;DHT22;32670;51.464;11.964;2023-07-13T02:56:49;26.40;44.00
46932;DHT22;32670;51.464;11.964;2023-07-13T02:59:14;26.40;44.00
46932;DHT22;32670;51.464;11.964;2023-07-13T03:01:40;26.30;44.00
46932;DHT22;32670;51.464;11.964;2023-07-13T03:04:05;26.30;44.20
46932;DHT22;32670;51.464;11.964;2023-07-13T03:06:33;26.40;44.30
46932;DHT22;32670;51.464;11.964;2023-07-13T03:08:58;26.30;44.20
46932;DHT22;32670;51.464;11.964;2023-07-13T03:11:25;26.40;44.10
46932;DHT22;32670;51.464;11.964;2023-07-13T03:13:51;26.30;44.10
46932;DHT22;32670;51.464;11.964;2023-07-13T03:16:17;26.40;44.70
46932;DHT22;32670;51.464;11.964;2023-07-13T03:18:43;26.30;44.10
46932;DHT22;32670;51.464;11.964;2023-07-13T03:21:08;26.30;44.10
46932;DHT22;32670;51.464;11.964;2023-07-13T03:23:34;26.30;44.20
46932;DHT22;32670;51.464;11.964;2023-07-13T03:26:05;26.30;44.30
46932;DHT22;32670;51.464;11.964;2023-07-13T03:28:31;26.20;44.40
46932;DHT22;32670;51.464;11.964;2023-07-13T03:31:05;26.30;44.50
46932;DHT22;32670;51.464;11.964;2023-07-13T03:33:30;26.20;44.50
46932;DHT22;32670;51.464;11.964;2023-07-13T03:35:57;26.20;44.60
46932;DHT22;32670;51.464;11.964;2023-07-13T03:38:22;26.20;44.70
46932;DHT22;32670;51.464;11.964;2023-07-13T03:40:48;26.20;44.70
46932;DHT22;32670;51.464;11.964;2023-07-13T03:43:14;26.20;44.80
46932;DHT22;32670;51.464;11.964;2023-07-13T03:45:39;26.20;44.80
46932;DHT22;32670;51.464;11.964;2023-07-13T03:48:05;26.20;45.00
46932;DHT22;32670;51.464;11.964;2023-07-13T03:50:31;26.20;45.00
46932;DHT22;32670;51.464;11.964;2023-07-13T03:52:57;26.20;45.00
46932;DHT22;32670;51.464;11.964;2023-07-13T03:55:23;26.10;45.10
46932;DHT22;32670;51.464;11.964;2023-07-13T03:57:54;26.10;45.10
46932;DHT22;32670;51.464;11.964;2023-07-13T04:00:22;26.10;45.20
46932;DHT22;32670;51.464;11.964;2023-07-13T04:02:48;26.20;45.20
46932;DHT22;32670;51.464;11.964;2023-07-13T04:05:14;26.20;45.20
46932;DHT22;32670;51.464;11.964;2023-07-13T04:07:40;26.10;45.20
46932;DHT22;32670;51.464;11.964;2023-07-13T04:10:06;26.10;45.20
46932;DHT22;32670;51.464;11.964;2023-07-13T04:12:31;26.10;45.20
46932;DHT22;32670;51.464;11.964;2023-07-13T04:14:57;26.10;45.80
46932;DHT22;32670;51.464;11.964;2023-07-13T04:17:22;26.10;45.50
46932;DHT22;32670;51.464;11.964;2023-07-13T04:19:48;26.10;45.60
46932;DHT22;32670;51.464;11.964;2023-07-13T04:22:14;26.00;45.70
46932;DHT22;32670;51.464;11.964;2023-07-13T04:24:39;26.10;45.70
46932;DHT22;32670;51.464;11.964;2023-07-13T04:27:06;26.00;45.80
46932;DHT22;32670;51.464;11.964;2023-07-13T04:29:32;26.00;45.80
46932;DHT22;32670;51.464;11.964;2023-07-13T04:31:57;26.00;45.90
46932;DHT22;32670;51.464;11.964;2023-07-13T04:34:23;26.00;46.00
46932;DHT22;32670;51.464;11.964;2023-07-13T04:36:49;26.00;46.00
46932;DHT22;32670;51.464;11.964;2023-07-13T04:39:15;26.00;46.10
46932;DHT22;32670;51.464;11.964;2023-07-13T04:41:41;26.00;46.20
46932;DHT22;32670;51.464;11.964;2023-07-13T04:44:06;26.00;46.20
46932;DHT22;32670;51.464;11.964;2023-07-13T04:46:32;26.00;46.30
46932;DHT22;32670;51.464;11.964;2023-07-13T04:48:57;26.00;46.40
46932;DHT22;32670;51.464;11.964;2023-07-13T04:51:24;26.00;46.30
46932;DHT22;32670;51.464;11.964;2023-07-13T04:53:49;26.00;46.20
46932;DHT22;32670;51.464;11.964;2023-07-13T04:56:15;26.00;46.40
46932;DHT22;32670;51.464;11.964;2023-07-13T04:58:40;26.10;46.40
46932;DHT22;32670;51.464;11.964;2023-07-13T05:01:06;26.10;46.40
46932;DHT22;32670;51.464;11.964;2023-07-13T05:03:32;26.10;46.50
46932;DHT22;32670;51.464;11.964;2023-07-13T05:06:05;26.00;46.40
46932;DHT22;32670;51.464;11.964;2023-07-13T05:08:31;26.00;46.50
46932;DHT22;32670;51.464;11.964;2023-07-13T05:10:56;26.00;46.50
46932;DHT22;32670;51.464;11.964;2023-07-13T05:13:24;26.10;46.60
46932;DHT22;32670;51.464;11.964;2023-07-13T05:16:01;26.10;46.60
46932;DHT22;32670;51.464;11.964;2023-07-13T05:18:27;26.10;46.70
46932;DHT22;32670;51.464;11.964;2023-07-13T05:21:04;26.10;46.60
46932;DHT22;32670;51.464;11.964;2023-07-13T05:23:31;26.10;46.80
46932;DHT22;32670;51.464;11.964;2023-07-13T05:25:56;26.10;46.80
46932;DHT22;32670;51.464;11.964;2023-07-13T05:28:22;26.10;47.00
46932;DHT22;32670;51.464;11.964;2023-07-13T05:30:48;26.10;47.00
46932;DHT22;32670;51.464;11.964;2023-07-13T05:33:14;26.10;47.00
46932;DHT22;32670;51.464;11.964;2023-07-13T05:35:40;26.10;47.10
46932;DHT22;32670;51.464;11.964;2023-07-13T05:38:05;26.10;47.10
46932;DHT22;32670;51.464;11.964;2023-07-13T05:40:31;26.00;47.10
46932;DHT22;32670;51.464;11.964;2023-07-13T05:42:57;26.10;47.20
46932;DHT22;32670;51.464;11.964;2023-07-13T05:45:22;26.10;47.10
46932;DHT22;32670;51.464;11.964;2023-07-13T05:47:48;26.10;47.10
46932;DHT22;32670;51.464;11.964;2023-07-13T05:50:13;26.10;47.20
46932;DHT22;32670;51.464;11.964;2023-07-13T05:52:38;26.10;47.10
46932;DHT22;32670;51.464;11.964;2023-07-13T05:55:04;26.10;47.10
46932;DHT22;32670;51.464;11.964;2023-07-13T05:57:30;26.10;47.20
46932;DHT22;32670;51.464;11.964;2023-07-13T05:59:56;26.10;47.20
46932;DHT22;32670;51.464;11.964;2023-07-13T06:02:22;26.10;47.10
46932;DHT22;32670;51.464;11.964;2023-07-13T06:04:47;26.10;47.00
46932;DHT22;32670;51.464;11.964;2023-07-13T06:07:12;26.10;46.90
46932;DHT22;32670;51.464;11.964;2023-07-13T06:09:38;26.10;47.00
46932;DHT22;32670;51.464;11.964;2023-07-13T06:12:04;26.10;47.00
46932;DHT22;32670;51.464;11.964;2023-07-13T06:14:30;26.20;47.30
46932;DHT22;32670;51.464;11.964;2023-07-13T06:16:55;26.20;47.70
46932;DHT22;32670;51.464;11.964;2023-07-13T06:19:20;26.20;47.20
46932;DHT22;32670;51.464;11.964;2023-07-13T06:21:46;26.20;46.90
46932;DHT22;32670;51.464;11.964;2023-07-13T06:24:11;26.20;46.70
46932;DHT22;32670;51.464;11.964;2023-07-13T06:26:37;26.20;46.30
46932;DHT22;32670;51.464;11.964;2023-07-13T06:29:02;26.20;45.80
46932;DHT22;32670;51.464;11.964;2023-07-13T06:31:28;26.20;45.30
46932;DHT22;32670;51.464;11.964;2023-07-13T06:33:53;26.20;45.10
46932;DHT22;32670;51.464;11.964;2023-07-13T06:36:19;26.20;45.10
46932;DHT22;32670;51.464;11.964;2023-07-13T06:38:44;26.20;45.00
46932;DHT22;32670;51.464;11.964;2023-07-13T06:41:11;26.10;44.70
46932;DHT22;32670;51.464;11.964;2023-07-13T06:43:37;26.10;44.40
46932;DHT22;32670;51.464;11.964;2023-07-13T06:46:03;26.10;44.30
46932;DHT22;32670;51.464;11.964;2023-07-13T06:48:29;26.10;44.10
46932;DHT22;32670;51.464;11.964;2023-07-13T06:50:55;26.10;43.90
46932;DHT22;32670;51.464;11.964;2023-07-13T06:53:21;26.10;44.00
46932;DHT22;32670;51.464;11.964;2023-07-13T06:55:47;26.10;44.00
46932;DHT22;32670;51.464;11.964;2023-07-13T06:58:15;26.10;44.00
46932;DHT22;32670;51.464;11.964;2023-07-13T07:00:41;26.10;43.70
46932;DHT22;32670;51.464;11.964;2023-07-13T07:03:06;26.00;43.40
46932;DHT22;32670;51.464;11.964;2023-07-13T07:05:32;26.00;42.90
46932;DHT22;32670;51.464;11.964;2023-07-13T07:07:59;26.00;42.70
46932;DHT22;32670;51.464;11.964;2023-07-13T07:10:24;26.00;42.90
46932;DHT22;32670;51.464;11.964;2023-07-13T07:12:50;26.10;42.70
46932;DHT22;32670;51.464;11.964;2023-07-13T07:15:16;26.00;42.40
46932;DHT22;32670;51.464;11.964;2023-07-13T07:17:42;26.00;42.20
46932;DHT22;32670;51.464;11.964;2023-07-13T07:20:07;26.00;42.00
46932;DHT22;32670;51.464;11.964;2023-07-13T07:22:33;26.00;42.10
46932;DHT22;32670;51.464;11.964;2023-07-13T07:24:59;26.00;41.50
46932;DHT22;32670;51.464;11.964;2023-07-13T07:27:24;26.00;42.60
46932;DHT22;32670;51.464;11.964;2023-07-13T07:29:50;26.00;43.00
46932;DHT22;32670;51.464;11.964;2023-07-13T07:32:16;26.00;43.00
46932;DHT22;32670;51.464;11.964;2023-07-13T07:34:41;26.10;43.30
46932;DHT22;32670;51.464;11.964;2023-07-13T07:37:11;26.20;43.40
46932;DHT22;32670;51.464;11.964;2023-07-13T07:39:36;26.20;43.50
46932;DHT22;32670;51.464;11.964;2023-07-13T07:42:02;26.20;43.40
46932;DHT22;32670;51.464;11.964;2023-07-13T07:44:28;26.20;43.50
46932;DHT22;32670;51.464;11.964;2023-07-13T07:46:54;26.30;43.70
46932;DHT22;32670;51.464;11.964;2023-07-13T07:49:19;26.30;43.70
46932;DHT22;32670;51.464;11.964;2023-07-13T07:51:45;26.30;43.80
46932;DHT22;32670;51.464;11.964;2023-07-13T07:54:11;26.30;43.80
46932;DHT22;32670;51.464;11.964;2023-07-13T07:56:36;26.30;43.90
46932;DHT22;32670;51.464;11.964;2023-07-13T07:59:02;26.30;43.90
46932;DHT22;32670;51.464;11.964;2023-07-13T08:01:27;26.30;44.00
46932;DHT22;32670;51.464;11.964;2023-07-13T08:03:53;26.40;44.30
46932;DHT22;32670;51.464;11.964;2023-07-13T08:06:18;26.30;44.30
46932;DHT22;32670;51.464;11.964;2023-07-13T08:08:47;26.30;44.30
46932;DHT22;32670;51.464;11.964;2023-07-13T08:11:13;26.40;44.20
46932;DHT22;32670;51.464;11.964;2023-07-13T08:13:38;26.30;44.20
46932;DHT22;32670;51.464;11.964;2023-07-13T08:16:05;26.40;44.30
46932;DHT22;32670;51.464;11.964;2023-07-13T08:18:31;26.40;44.30
46932;DHT22;32670;51.464;11.964;2023-07-13T08:20:57;26.40;44.40
46932;DHT22;32670;51.464;11.964;2023-07-13T08:23:24;26.40;44.50
46932;DHT22;32670;51.464;11.964;2023-07-13T08:25:53;26.40;44.50
46932;DHT22;32670;51.464;11.964;2023-07-13T08:28:20;26.40;44.60
46932;DHT22;32670;51.464;11.964;2023-07-13T08:30:47;26.40;44.60
46932;DHT22;32670;51.464;11.964;2023-07-13T08:33:17;26.40;44.60
46932;DHT22;32670;51.464;11.964;2023-07-13T08:35:48;26.40;44.60
46932;DHT22;32670;51.464;11.964;2023-07-13T08:38:15;26.40;44.70
46932;DHT22;32670;51.464;11.964;2023-07-13T08:40:41;26.50;44.70
46932;DHT22;32670;51.464;11.964;2023-07-13T08:43:16;26.50;44.80
46932;DHT22;32670;51.464;11.964;2023-07-13T08:45:50;26.40;44.80
46932;DHT22;32670;51.464;11.964;2023-07-13T08:48:19;26.50;44.80
46932;DHT22;32670;51.464;11.964;2023-07-13T08:50:55;26.50;44.90
46932;DHT22;32670;51.464;11.964;2023-07-13T08:53:23;26.50;45.00
46932;DHT22;32670;51.464;11.964;2023-07-13T08:55:56;26.50;45.20
46932;DHT22;32670;51.464;11.964;2023-07-13T08:58:23;26.50;45.00
46932;DHT22;32670;51.464;11.964;2023-07-13T09:01:18;26.50;45.00
46932;DHT22;32670;51.464;11.964;2023-07-13T09:06:40;26.50;45.10
46932;DHT22;32670;51.464;11.964;2023-07-13T09:09:25;26.50;45.10
46932;DHT22;32670;51.464;11.964;2023-07-13T09:12:02;26.50;45.10
46932;DHT22;32670;51.464;11.964;2023-07-13T09:14:42;26.50;45.10
46932;DHT22;32670;51.464;11.964;2023-07-13T09:17:17;26.50;45.30
46932;DHT22;32670;51.464;11.964;2023-07-13T09:19:43;26.50;45.30
46932;DHT22;32670;51.464;11.964;2023-07-13T09:22:17;26.50;45.30
46932;DHT22;32670;51.464;11.964;2023-07-13T09:24:58;26.50;45.60
46932;DHT22;32670;51.464;11.964;2023-07-13T09:27:38;26.50;45.30
46932;DHT22;32670;51.464;11.964;2023-07-13T09:30:12;26.50;45.20
46932;DHT22;32670;51.464;11.964;2023-07-13T09:32:47;26.50;45.30
46932;DHT22;32670;51.464;11.964;2023-07-13T09:35:17;26.60;45.40
46932;DHT22;32670;51.464;11.964;2023-07-13T09:37:45;26.50;45.40
46932;DHT22;32670;51.464;11.964;2023-07-13T09:42:58;26.50;45.40
46932;DHT22;32670;51.464;11.964;2023-07-13T09:45:28;26.60;45.40
46932;DHT22;32670;51.464;11.964;2023-07-13T09:48:12;26.60;45.50
46932;DHT22;32670;51.464;11.964;2023-07-13T09:50:39;26.60;45.50
46932;DHT22;32670;51.464;11.964;2023-07-13T09:53:11;26.60;45.50
46932;DHT22;32670;51.464;11.964;2023-07-13T09:55:38;26.60;45.90
46932;DHT22;32670;51.464;11.964;2023-07-13T09:58:22;26.60;45.50
46932;DHT22;32670;51.464;11.964;2023-07-13T10:00:58;26.60;45.50
46932;DHT22;32670;51.464;11.964;2023-07-13T10:03:27;26.60;45.70
46932;DHT22;32670;51.464;11.964;2023-07-13T10:05:53;26.60;45.50
46932;DHT22;32670;51.464;11.964;2023-07-13T10:08:28;26.60;45.50
46932;DHT22;32670;51.464;11.964;2023-07-13T10:11:00;26.60;45.30
46932;DHT22;32670;51.464;11.964;2023-07-13T10:13:33;26.60;45.30
46932;DHT22;32670;51.464;11.964;2023-07-13T10:16:00;26.60;45.30
46932;DHT22;32670;51.464;11.964;2023-07-13T10:18:27;26.60;45.30
46932;DHT22;32670;51.464;11.964;2023-07-13T10:21:15;26.60;45.50
46932;DHT22;32670;51.464;11.964;2023-07-13T10:23:42;26.60;45.50
46932;DHT22;32670;51.464;11.964;2023-07-13T10:26:15;26.60;45.50
46932;DHT22;32670;51.464;11.964;2023-07-13T10:28:42;26.60;45.50
46932;DHT22;32670;51.464;11.964;2023-07-13T10:31:12;26.60;45.50
46932;DHT22;32670;51.464;11.964;2023-07-13T10:33:38;26.60;45.50
46932;DHT22;32670;51.464;11.964;2023-07-13T10:36:31;26.60;46.10
46932;DHT22;32670;51.464;11.964;2023-07-13T10:38:59;26.60;45.50
46932;DHT22;32670;51.464;11.964;2023-07-13T10:41:27;26.60;45.50
46932;DHT22;32670;51.464;11.964;2023-07-13T10:43:56;26.60;45.70
46932;DHT22;32670;51.464;11.964;2023-07-13T10:46:25;26.60;45.50
46932;DHT22;32670;51.464;11.964;2023-07-13T10:48:56;26.60;45.50
46932;DHT22;32670;51.464;11.964;2023-07-13T10:51:23;26.60;45.50
46932;DHT22;32670;51.464;11.964;2023-07-13T10:54:22;26.60;45.70
46932;DHT22;32670;51.464;11.964;2023-07-13T10:57:06;26.60;45.50
46932;DHT22;32670;51.464;11.964;2023-07-13T10:59:33;26.60;45.70
46932;DHT22;32670;51.464;11.964;2023-07-13T11:02:11;26.70;45.60
46932;DHT22;32670;51.464;11.964;2023-07-13T11:04:43;26.60;45.60
46932;DHT22;32670;51.464;11.964;2023-07-13T11:07:18;26.60;45.50
46932;DHT22;32670;51.464;11.964;2023-07-13T11:09:53;26.60;45.80
46932;DHT22;32670;51.464;11.964;2023-07-13T11:17:46;26.70;45.80
46932;DHT22;32670;51.464;11.964;2023-07-13T11:22:49;26.60;45.90
46932;DHT22;32670;51.464;11.964;2023-07-13T11:30:47;26.70;46.00
46932;DHT22;32670;51.464;11.964;2023-07-13T11:33:19;26.60;45.90
46932;DHT22;32670;51.464;11.964;2023-07-13T11:38:36;26.70;46.10
46932;DHT22;32670;51.464;11.964;2023-07-13T11:41:15;26.70;46.10
46932;DHT22;32670;51.464;11.964;2023-07-13T11:43:41;26.70;46.00
46932;DHT22;32670;51.464;11.964;2023-07-13T11:46:22;26.70;46.00
46932;DHT22;32670;51.464;11.964;2023-07-13T11:48:49;26.70;46.10
46932;DHT22;32670;51.464;11.964;2023-07-13T11:51:27;26.70;46.00
46932;DHT22;32670;51.464;11.964;2023-07-13T11:53:54;26.70;46.10
46932;DHT22;32670;51.464;11.964;2023-07-13T11:56:22;26.70;46.10
46932;DHT22;32670;51.464;11.964;2023-07-13T11:58:50;26.70;46.10
46932;DHT22;32670;51.464;11.964;2023-07-13T12:01:23;26.70;46.10
46932;DHT22;32670;51.464;11.964;2023-07-13T12:03:51;26.70;46.70
46932;DHT22;32670;51.464;11.964;2023-07-13T12:06:36;26.70;46.00
46932;DHT22;32670;51.464;11.964;2023-07-13T12:09:14;26.70;46.10
46932;DHT22;32670;51.464;11.964;2023-07-13T12:11:44;26.70;46.00
46932;DHT22;32670;51.464;11.964;2023-07-13T12:14:17;26.70;46.10
46932;DHT22;32670;51.464;11.964;2023-07-13T12:16:47;26.70;46.10
46932;DHT22;32670;51.464;11.964;2023-07-13T12:19:23;26.70;46.20
46932;DHT22;32670;51.464;11.964;2023-07-13T12:21:50;26.70;46.00
46932;DHT22;32670;51.464;11.964;2023-07-13T12:24:17;26.70;46.10
46932;DHT22;32670;51.464;11.964;2023-07-13T12:26:44;26.70;46.10
46932;DHT22;32670;51.464;11.964;2023-07-13T12:29:16;26.70;46.10
46932;DHT22;32670;51.464;11.964;2023-07-13T12:31:45;26.70;46.10
46932;DHT22;32670;51.464;11.964;2023-07-13T12:34:14;26.70;46.10
46932;DHT22;32670;51.464;11.964;2023-07-13T12:36:51;26.70;46.20
46932;DHT22;32670;51.464;11.964;2023-07-13T12:39:43;26.70;46.20
46932;DHT22;32670;51.464;11.964;2023-07-13T12:42:27;26.70;46.10
46932;DHT22;32670;51.464;11.964;2023-07-13T12:45:01;26.70;45.40
46932;DHT22;32670;51.464;11.964;2023-07-13T12:47:28;26.70;45.80
46932;DHT22;32670;51.464;11.964;2023-07-13T12:49:56;26.70;44.50
46932;DHT22;32670;51.464;11.964;2023-07-13T12:52:28;26.70;43.70
46932;DHT22;32670;51.464;11.964;2023-07-13T12:54:58;26.70;43.20
46932;DHT22;32670;51.464;11.964;2023-07-13T12:57:25;26.70;42.50
46932;DHT22;32670;51.464;11.964;2023-07-13T12:59:52;26.60;42.80
46932;DHT22;32670;51.464;11.964;2023-07-13T13:02:32;26.60;43.10
46932;DHT22;32670;51.464;11.964;2023-07-13T13:04:58;26.60;43.00
46932;DHT22;32670;51.464;11.964;2023-07-13T13:07:25;26.60;42.80
46932;DHT22;32670;51.464;11.964;2023-07-13T13:09:51;26.70;43.00
46932;DHT22;32670;51.464;11.964;2023-07-13T13:12:19;26.60;42.00
46932;DHT22;32670;51.464;11.964;2023-07-13T13:14:44;26.60;42.70
46932;DHT22;32670;51.464;11.964;2023-07-13T13:17:22;26.60;40.80
46932;DHT22;32670;51.464;11.964;2023-07-13T13:19:50;26.60;41.00
46932;DHT22;32670;51.464;11.964;2023-07-13T13:22:18;26.60;41.00
46932;DHT22;32670;51.464;11.964;2023-07-13T13:24:43;26.60;40.60
46932;DHT22;32670;51.464;11.964;2023-07-13T13:27:18;26.60;41.30
46932;DHT22;32670;51.464;11.964;2023-07-13T13:29:45;26.60;40.80
46932;DHT22;32670;51.464;11.964;2023-07-13T13:32:13;26.60;41.30
46932;DHT22;32670;51.464;11.964;2023-07-13T13:34:39;26.60;41.80
46932;DHT22;32670;51.464;11.964;2023-07-13T13:37:28;26.60;40.50
46932;DHT22;32670;51.464;11.964;2023-07-13T13:39:53;26.60;40.80
46932;DHT22;32670;51.464;11.964;2023-07-13T13:42:20;26.60;40.90
46932;DHT22;32670;51.464;11.964;2023-07-13T13:44:47;26.60;41.00
46932;DHT22;32670;51.464;11.964;2023-07-13T13:47:42;26.60;41.40
46932;DHT22;32670;51.464;11.964;2023-07-13T13:50:13;26.60;41.00
46932;DHT22;32670;51.464;11.964;2023-07-13T13:52:42;26.60;41.30
46932;DHT22;32670;51.464;11.964;2023-07-13T13:55:19;26.60;40.70
46932;DHT22;32670;51.464;11.964;2023-07-13T13:57:46;26.60;41.20
46932;DHT22;32670;51.464;11.964;2023-07-13T14:00:12;26.60;41.00
46932;DHT22;32670;51.464;11.964;2023-07-13T14:02:41;26.60;40.30
46932;DHT22;32670;51.464;11.964;2023-07-13T14:05:09;26.60;40.50
46932;DHT22;32670;51.464;11.964;2023-07-13T14:07:37;26.60;40.10
46932;DHT22;32670;51.464;11.964;2023-07-13T14:10:08;26.60;40.00
46932;DHT22;32670;51.464;11.964;2023-07-13T14:12:34;26.60;40.10
46932;DHT22;32670;51.464;11.964;2023-07-13T14:15:00;26.60;40.50
46932;DHT22;32670;51.464;11.964;2023-07-13T14:17:27;26.60;41.40
46932;DHT22;32670;51.464;11.964;2023-07-13T14:19:53;26.60;40.70
46932;DHT22;32670;51.464;11.964;2023-07-13T14:22:26;26.60;41.20
46932;DHT22;32670;51.464;11.964;2023-07-13T14:24:55;26.60;40.10
46932;DHT22;32670;51.464;11.964;2023-07-13T14:27:22;26.60;39.60
46932;DHT22;32670;51.464;11.964;2023-07-13T14:29:48;26.60;39.10
46932;DHT22;32670;51.464;11.964;2023-07-13T14:32:14;26.60;38.80
46932;DHT22;32670;51.464;11.964;2023-07-13T14:34:39;26.60;38.70
46932;DHT22;32670;51.464;11.964;2023-07-13T14:37:08;26.60;39.20
46932;DHT22;32670;51.464;11.964;2023-07-13T14:39:37;26.60;39.20
46932;DHT22;32670;51.464;11.964;2023-07-13T14:42:03;26.60;39.00
46932;DHT22;32670;51.464;11.964;2023-07-13T14:44:30;26.60;39.70
46932;DHT22;32670;51.464;11.964;2023-07-13T14:46:58;26.60;39.20
46932;DHT22;32670;51.464;11.964;2023-07-13T14:49:32;26.60;39.20
46932;DHT22;32670;51.464;11.964;2023-07-13T14:52:02;26.60;39.40
46932;DHT22;32670;51.464;11.964;2023-07-13T14:54:29;26.50;39.20
46932;DHT22;32670;51.464;11.964;2023-07-13T14:56:54;26.60;39.10
46932;DHT22;32670;51.464;11.964;2023-07-13T14:59:20;26.60;39.00
46932;DHT22;32670;51.464;11.964;2023-07-13T15:01:46;26.60;39.50
46932;DHT22;32670;51.464;11.964;2023-07-13T15:04:12;26.60;39.70
46932;DHT22;32670;51.464;11.964;2023-07-13T15:06:58;26.60;39.60
46932;DHT22;32670;51.464;11.964;2023-07-13T15:09:25;26.60;40.60
46932;DHT22;32670;51.464;11.964;2023-07-13T15:11:52;26.60;40.60
46932;DHT22;32670;51.464;11.964;2023-07-13T15:14:18;26.60;40.30
46932;DHT22;32670;51.464;11.964;2023-07-13T15:16:44;26.70;40.50
46932;DHT22;32670;51.464;11.964;2023-07-13T15:19:10;26.60;40.10
46932;DHT22;32670;51.464;11.964;2023-07-13T15:21:36;26.60;40.10
46932;DHT22;32670;51.464;11.964;2023-07-13T15:24:02;26.60;39.70
46932;DHT22;32670;51.464;11.964;2023-07-13T15:26:28;26.60;39.50
46932;DHT22;32670;51.464;11.964;2023-07-13T15:28:53;26.60;39.70
46932;DHT22;32670;51.464;11.964;2023-07-13T15:31:24;26.60;39.80
46932;DHT22;32670;51.464;11.964;2023-07-13T15:33:51;26.60;40.30
46932;DHT22;32670;51.464;11.964;2023-07-13T15:36:19;26.60;40.40
46932;DHT22;32670;51.464;11.964;2023-07-13T15:38:46;26.60;40.40
46932;DHT22;32670;51.464;11.964;2023-07-13T15:41:23;26.60;40.30
46932;DHT22;32670;51.464;11.964;2023-07-13T15:43:51;26.60;40.50